createdAt,value
2024-04-26T00:01:59.607Z,9.60
2024-04-26T00:04:27.571Z,9.70
2024-04-26T00:06:55.453Z,9.50
2024-04-26T00:09:23.397Z,10.00
2024-04-26T00:11:51.327Z,9.20
2024-04-26T00:14:19.632Z,9.90
2024-04-26T00:16:47.590Z,9.60
2024-04-26T00:19:15.717Z,10.10
2024-04-26T00:21:44.443Z,9.40
2024-04-26T00:24:19.020Z,8.90
2024-04-26T00:26:49.637Z,9.60
2024-04-26T00:29:18.778Z,9.10
2024-04-26T00:31:47.197Z,8.70
2024-04-26T00:34:15.076Z,8.60
2024-04-26T00:36:43.052Z,8.90
2024-04-26T00:39:10.912Z,9.20
2024-04-26T00:41:38.859Z,8.20
2024-04-26T00:44:14.896Z,8.90
2024-04-26T00:46:47.366Z,9.10
2024-04-26T00:51:46.509Z,7.90
2024-04-26T00:54:17.519Z,9.00
2024-04-26T00:56:45.943Z,9.90
2024-04-26T00:59:16.748Z,9.10
2024-04-26T01:01:44.810Z,9.30
2024-04-26T01:04:12.733Z,9.40
2024-04-26T01:06:40.997Z,9.90
2024-04-26T01:09:10.689Z,8.70
2024-04-26T01:11:39.216Z,8.90
2024-04-26T01:14:07.969Z,8.40
2024-04-26T01:16:35.854Z,9.30
2024-04-26T01:19:05.729Z,9.90
2024-04-26T01:21:34.233Z,9.30
2024-04-26T01:24:05.061Z,10.20
2024-04-26T01:26:33.377Z,10.50
2024-04-26T01:29:01.336Z,10.50
2024-04-26T01:31:29.224Z,10.20
2024-04-26T01:33:57.040Z,10.00
2024-04-26T01:36:24.875Z,9.10
2024-04-26T01:38:52.744Z,9.80
2024-04-26T01:41:20.758Z,9.80
2024-04-26T01:43:48.564Z,9.30
2024-04-26T01:46:16.466Z,9.10
2024-04-26T01:48:44.431Z,9.40
2024-04-26T01:51:12.426Z,9.30
2024-04-26T01:53:40.343Z,9.40
2024-04-26T01:56:08.184Z,8.90
2024-04-26T01:58:36.739Z,9.00
2024-04-26T02:01:05.049Z,8.40
2024-04-26T02:03:33.027Z,9.40
2024-04-26T02:06:01.543Z,8.30
2024-04-26T02:08:29.540Z,8.30
2024-04-26T02:10:57.474Z,9.00
2024-04-26T02:13:25.434Z,8.30
2024-04-26T02:15:53.267Z,9.60
2024-04-26T02:18:21.138Z,8.90
2024-04-26T02:20:49.178Z,9.20
2024-04-26T02:23:17.292Z,10.00
2024-04-26T02:25:45.131Z,9.20
2024-04-26T02:28:13.029Z,9.30
2024-04-26T02:30:41.832Z,9.50
2024-04-26T02:33:09.868Z,9.50
2024-04-26T02:35:37.955Z,9.10
2024-04-26T02:38:05.851Z,9.00
2024-04-26T02:40:33.703Z,9.50
2024-04-26T02:43:02.642Z,9.10
2024-04-26T02:45:30.549Z,9.30
2024-04-26T02:47:58.461Z,9.00
2024-04-26T02:50:26.333Z,8.70
2024-04-26T02:52:54.233Z,8.60
2024-04-26T02:55:22.158Z,9.90
2024-04-26T02:57:50.006Z,9.40
2024-04-26T03:00:18.054Z,10.60
2024-04-26T03:02:48.166Z,9.20
2024-04-26T03:05:16.162Z,9.20
2024-04-26T03:07:44.468Z,9.40
2024-04-26T03:10:12.266Z,9.10
2024-04-26T03:12:40.198Z,8.70
2024-04-26T03:15:08.347Z,8.70
2024-04-26T03:17:39.494Z,9.10
2024-04-26T03:20:07.724Z,9.00
2024-04-26T03:22:35.630Z,9.60
2024-04-26T03:25:03.693Z,9.40
2024-04-26T03:27:31.598Z,9.10
2024-04-26T03:29:59.710Z,8.90
2024-04-26T03:32:32.036Z,8.20
2024-04-26T03:37:27.758Z,8.50
2024-04-26T03:39:55.618Z,9.00
2024-04-26T03:42:23.444Z,8.10
2024-04-26T03:44:51.282Z,8.10
2024-04-26T03:47:19.187Z,7.90
2024-04-26T03:49:47.214Z,7.90
2024-04-26T03:52:15.281Z,7.90
2024-04-26T03:54:43.105Z,7.70
2024-04-26T03:57:11.109Z,8.10
2024-04-26T03:59:39.000Z,7.40
2024-04-26T04:02:06.797Z,7.90
2024-04-26T04:04:34.729Z,7.60
2024-04-26T04:07:02.674Z,7.80
2024-04-26T04:09:30.569Z,8.40
2024-04-26T04:11:58.912Z,7.70
2024-04-26T04:14:27.050Z,7.00
2024-04-26T04:16:54.928Z,7.70
2024-04-26T04:19:22.884Z,7.30
2024-04-26T04:21:50.923Z,7.60
2024-04-26T04:24:18.794Z,8.60
2024-04-26T04:26:46.880Z,7.30
2024-04-26T04:29:14.930Z,6.20
2024-04-26T04:31:42.884Z,7.30
2024-04-26T04:34:10.849Z,6.70
2024-04-26T04:36:38.928Z,6.50
2024-04-26T04:39:07.030Z,7.20
2024-04-26T04:41:35.108Z,6.80
2024-04-26T04:44:03.042Z,5.70
2024-04-26T04:46:30.892Z,6.20
2024-04-26T04:48:59.179Z,5.20
2024-04-26T04:51:27.155Z,6.40
2024-04-26T04:53:55.055Z,4.70
2024-04-26T04:56:23.258Z,5.70
2024-04-26T04:58:51.178Z,6.00
2024-04-26T05:01:19.267Z,6.10
2024-04-26T05:03:48.364Z,5.80
2024-04-26T05:06:16.636Z,5.70
2024-04-26T05:08:46.360Z,5.80
2024-04-26T05:11:14.497Z,6.40
2024-04-26T05:13:42.395Z,5.40
2024-04-26T05:16:10.487Z,5.20
2024-04-26T05:18:38.725Z,4.60
2024-04-26T05:21:07.019Z,4.70
2024-04-26T05:23:35.797Z,4.90
2024-04-26T05:26:03.869Z,4.70
2024-04-26T05:28:31.859Z,4.30
2024-04-26T05:31:02.822Z,4.40
2024-04-26T05:33:30.955Z,4.50
2024-04-26T05:35:59.154Z,4.00
2024-04-26T05:38:27.245Z,3.50
2024-04-26T05:40:55.334Z,3.90
2024-04-26T05:43:23.266Z,4.10
2024-04-26T05:45:51.325Z,3.10
2024-04-26T05:48:19.774Z,4.20
2024-04-26T05:50:47.816Z,4.60
2024-04-26T05:53:15.817Z,4.60
2024-04-26T05:55:43.748Z,4.30
2024-04-26T05:58:11.637Z,4.60
2024-04-26T06:00:42.257Z,4.10
2024-04-26T06:03:11.772Z,4.40
2024-04-26T06:05:40.142Z,4.50
2024-04-26T06:08:08.122Z,5.10
2024-04-26T06:10:36.077Z,4.40
2024-04-26T06:13:13.396Z,4.40
2024-04-26T06:15:50.050Z,4.70
2024-04-26T06:18:18.211Z,4.50
2024-04-26T06:20:46.631Z,4.30
2024-04-26T06:23:14.689Z,4.20
2024-04-26T06:25:42.662Z,5.10
2024-04-26T06:28:10.758Z,4.60
2024-04-26T06:30:38.968Z,4.00
2024-04-26T06:33:07.451Z,4.20
2024-04-26T06:35:44.071Z,4.20
2024-04-26T06:38:12.629Z,4.50
2024-04-26T06:40:41.761Z,4.10
2024-04-26T06:43:09.827Z,3.40
2024-04-26T06:45:37.776Z,3.70
2024-04-26T06:48:06.252Z,4.30
2024-04-26T06:50:34.311Z,4.10
2024-04-26T06:53:03.148Z,4.10
2024-04-26T06:55:31.128Z,3.70
2024-04-26T06:57:59.036Z,3.50
2024-04-26T07:00:26.899Z,3.50
2024-04-26T07:02:55.039Z,2.70
2024-04-26T07:05:23.472Z,3.00
2024-04-26T07:07:51.587Z,2.70
2024-04-26T07:10:19.562Z,3.10
2024-04-26T07:12:47.499Z,2.90
2024-04-26T07:15:15.457Z,3.60
2024-04-26T07:17:46.269Z,3.30
2024-04-26T07:20:14.818Z,3.80
2024-04-26T07:22:53.863Z,2.60
2024-04-26T07:25:29.684Z,3.50
2024-04-26T07:27:57.650Z,3.40
2024-04-26T07:30:25.609Z,3.20
2024-04-26T07:32:53.764Z,3.20
2024-04-26T07:35:21.960Z,2.70
2024-04-26T07:37:49.941Z,2.80
2024-04-26T07:40:17.994Z,2.60
2024-04-26T07:42:45.929Z,3.20
2024-04-26T07:45:14.125Z,2.70
2024-04-26T07:47:42.144Z,2.80
2024-04-26T07:50:10.523Z,2.70
2024-04-26T07:52:38.510Z,3.20
2024-04-26T07:55:08.286Z,3.10
2024-04-26T07:57:36.214Z,2.90
2024-04-26T08:00:04.496Z,3.30
2024-04-26T08:02:33.160Z,2.60
2024-04-26T08:05:03.247Z,2.30
2024-04-26T08:07:31.482Z,1.90
2024-04-26T08:10:00.711Z,2.20
2024-04-26T08:12:29.059Z,2.30
2024-04-26T08:14:57.305Z,2.10
2024-04-26T08:17:26.961Z,2.10
2024-04-26T08:19:55.347Z,2.10
2024-04-26T08:22:23.261Z,2.40
2024-04-26T08:24:55.982Z,2.40
2024-04-26T08:27:26.903Z,1.70
2024-04-26T08:29:55.035Z,2.00
2024-04-26T08:32:26.565Z,2.40
2024-04-26T08:34:54.954Z,2.40
2024-04-26T08:37:23.386Z,2.90
2024-04-26T08:39:57.683Z,2.40
2024-04-26T08:42:27.982Z,2.10
2024-04-26T08:44:56.831Z,2.10
2024-04-26T08:47:26.248Z,1.70
2024-04-26T08:49:56.108Z,1.90
2024-04-26T08:52:24.769Z,2.10
2024-04-26T08:54:52.730Z,2.00
2024-04-26T08:57:22.042Z,2.60
2024-04-26T08:59:57.141Z,1.90
2024-04-26T09:02:26.067Z,2.00
2024-04-26T09:04:56.439Z,1.90
2024-04-26T09:07:24.438Z,1.90
2024-04-26T09:09:52.433Z,2.10
2024-04-26T09:12:20.494Z,1.80
2024-04-26T09:14:48.623Z,1.70
2024-04-26T09:17:16.694Z,1.50
2024-04-26T09:19:45.441Z,1.50
2024-04-26T09:22:14.235Z,1.90
2024-04-26T09:24:42.110Z,1.80
2024-04-26T09:27:10.118Z,1.40
2024-04-26T09:29:38.024Z,1.60
2024-04-26T09:32:13.536Z,1.80
2024-04-26T09:34:53.321Z,1.40
2024-04-26T09:37:22.427Z,1.50
2024-04-26T09:39:51.641Z,1.70
2024-04-26T09:42:22.623Z,1.30
2024-04-26T09:44:54.779Z,1.80
2024-04-26T09:47:27.178Z,1.60
2024-04-26T09:49:57.001Z,2.10
2024-04-26T09:52:25.746Z,1.80
2024-04-26T09:54:55.504Z,1.80
2024-04-26T09:57:23.549Z,1.50
2024-04-26T09:59:52.922Z,1.80
2024-04-26T10:02:23.574Z,1.80
2024-04-26T10:04:55.276Z,1.90
2024-04-26T10:07:24.404Z,1.70
2024-04-26T10:10:00.179Z,1.40
2024-04-26T10:12:30.398Z,1.50
2024-04-26T10:15:12.460Z,1.80
2024-04-26T10:17:51.238Z,1.60
2024-04-26T10:20:21.406Z,1.90
2024-04-26T10:23:02.821Z,2.10
2024-04-26T10:25:30.983Z,1.90
2024-04-26T10:28:11.259Z,1.50
2024-04-26T10:30:50.537Z,1.50
2024-04-26T10:33:20.365Z,1.80
2024-04-26T10:35:48.757Z,1.70
2024-04-26T10:38:16.931Z,1.60
2024-04-26T10:40:49.652Z,1.60
2024-04-26T10:43:26.067Z,1.80
2024-04-26T10:45:55.813Z,1.50
2024-04-26T10:48:29.642Z,2.10
2024-04-26T10:51:18.343Z,1.60
2024-04-26T10:53:46.545Z,1.50
2024-04-26T10:56:16.880Z,1.50
2024-04-26T10:58:45.891Z,1.40
2024-04-26T11:01:19.157Z,1.50
2024-04-26T11:03:59.021Z,1.60
2024-04-26T11:06:37.743Z,1.80
2024-04-26T11:09:12.118Z,1.40
2024-04-26T11:11:53.083Z,1.60
2024-04-26T11:14:21.587Z,1.40
2024-04-26T11:16:50.375Z,1.70
2024-04-26T11:19:29.905Z,1.70
2024-04-26T11:21:58.130Z,1.60
2024-04-26T11:24:26.838Z,1.60
2024-04-26T11:26:55.752Z,2.00
2024-04-26T11:29:23.892Z,1.40
2024-04-26T11:31:51.943Z,2.40
2024-04-26T11:34:20.352Z,1.40
2024-04-26T11:36:48.452Z,1.50
2024-04-26T11:39:16.565Z,1.40
2024-04-26T11:41:44.827Z,1.40
2024-04-26T11:44:13.382Z,1.60
2024-04-26T11:46:41.452Z,1.60
2024-04-26T11:49:09.676Z,1.60
2024-04-26T11:51:41.575Z,1.80
2024-04-26T11:54:10.391Z,1.60
2024-04-26T11:56:38.685Z,1.50
2024-04-26T11:59:09.882Z,1.50
2024-04-26T12:01:46.708Z,1.40
2024-04-26T12:04:14.812Z,1.50
2024-04-26T12:06:42.981Z,1.40
2024-04-26T12:09:13.806Z,1.50
2024-04-26T12:11:46.556Z,1.60
2024-04-26T12:14:14.614Z,1.90
2024-04-26T12:16:48.349Z,1.60
2024-04-26T12:19:17.408Z,1.80
2024-04-26T12:21:46.164Z,1.50
2024-04-26T12:24:14.367Z,1.70
2024-04-26T12:26:42.406Z,1.80
2024-04-26T12:29:14.470Z,1.90
2024-04-26T12:31:42.400Z,1.60
2024-04-26T12:34:10.497Z,1.50
2024-04-26T12:36:42.415Z,1.60
2024-04-26T12:41:45.712Z,1.80
2024-04-26T12:46:44.380Z,1.90
2024-04-26T12:49:19.365Z,1.70
2024-04-26T12:51:47.751Z,1.50
2024-04-26T12:54:15.903Z,1.70
2024-04-26T12:56:44.616Z,1.80
2024-04-26T12:59:12.504Z,1.70
2024-04-26T13:01:40.352Z,1.60
2024-04-26T13:04:08.506Z,1.30
2024-04-26T13:06:38.168Z,1.80
2024-04-26T13:09:06.443Z,1.60
2024-04-26T13:11:34.664Z,1.50
2024-04-26T13:14:03.378Z,1.90
2024-04-26T13:16:31.335Z,1.90
2024-04-26T13:18:59.572Z,1.40
2024-04-26T13:21:28.964Z,1.60
2024-04-26T13:23:56.873Z,1.60
2024-04-26T13:26:25.160Z,1.70
2024-04-26T13:28:53.055Z,1.70
2024-04-26T13:31:20.883Z,1.40
2024-04-26T13:33:48.885Z,1.70
2024-04-26T13:36:17.036Z,1.80
2024-04-26T13:38:45.058Z,1.50
2024-04-26T13:41:15.023Z,1.60
2024-04-26T13:43:43.244Z,1.70
2024-04-26T13:46:11.202Z,1.60
2024-04-26T13:48:41.796Z,1.50
2024-04-26T13:51:10.447Z,1.40
2024-04-26T13:53:42.300Z,1.50
2024-04-26T13:56:11.401Z,1.50
2024-04-26T13:58:39.867Z,1.60
2024-04-26T14:01:07.882Z,1.50
2024-04-26T14:03:35.978Z,1.30
2024-04-26T14:06:04.918Z,1.70
2024-04-26T14:08:33.067Z,1.70
2024-04-26T14:11:01.075Z,1.40
2024-04-26T14:13:29.081Z,1.50
2024-04-26T14:15:57.009Z,1.80
2024-04-26T14:18:25.005Z,1.80
2024-04-26T14:20:53.178Z,1.30
2024-04-26T14:23:21.201Z,1.60
2024-04-26T14:25:51.533Z,1.30
2024-04-26T14:28:19.503Z,1.50
2024-04-26T14:30:47.362Z,1.70
2024-04-26T14:33:15.420Z,1.70
2024-04-26T14:35:43.367Z,1.40
2024-04-26T14:38:12.369Z,1.70
2024-04-26T14:40:40.323Z,1.90
2024-04-26T14:43:08.325Z,1.60
2024-04-26T14:45:38.171Z,1.90
2024-04-26T14:48:06.343Z,1.40
2024-04-26T14:50:37.485Z,1.50
2024-04-26T14:53:07.019Z,1.50
2024-04-26T14:55:36.099Z,1.80
2024-04-26T14:58:04.330Z,2.10
2024-04-26T15:00:32.311Z,1.60
2024-04-26T15:03:00.240Z,1.60
2024-04-26T15:05:28.243Z,1.50
2024-04-26T15:07:56.213Z,1.70
2024-04-26T15:10:27.623Z,2.10
2024-04-26T15:12:55.627Z,1.50
2024-04-26T15:15:26.690Z,1.70
2024-04-26T15:17:55.570Z,2.20
2024-04-26T15:20:24.897Z,1.90
2024-04-26T15:22:53.020Z,1.40
2024-04-26T15:25:21.061Z,1.90
2024-04-26T15:27:49.154Z,2.20
2024-04-26T15:30:17.961Z,2.00
2024-04-26T15:32:46.071Z,2.50
2024-04-26T15:35:14.261Z,2.50
2024-04-26T15:37:44.891Z,2.70
2024-04-26T15:40:13.052Z,2.60
2024-04-26T15:42:41.104Z,2.60
2024-04-26T15:45:09.910Z,2.70
2024-04-26T15:47:39.645Z,2.30
2024-04-26T15:50:09.238Z,1.90
2024-04-26T15:52:37.822Z,1.40
2024-04-26T15:55:07.773Z,1.90
2024-04-26T15:57:35.633Z,1.90
2024-04-26T16:00:04.937Z,2.10
2024-04-26T16:02:32.867Z,1.90
2024-04-26T16:05:00.854Z,1.90
2024-04-26T16:07:29.205Z,1.60
2024-04-26T16:09:57.131Z,1.70
2024-04-26T16:12:25.051Z,1.70
2024-04-26T16:14:52.912Z,1.70
2024-04-26T16:17:20.839Z,1.60
2024-04-26T16:19:51.335Z,1.80
2024-04-26T16:22:23.943Z,1.70
2024-04-26T16:24:51.895Z,1.90
2024-04-26T16:27:20.248Z,1.90
2024-04-26T16:29:48.237Z,1.90
2024-04-26T16:32:16.120Z,1.80
2024-04-26T16:34:44.224Z,2.10
2024-04-26T16:37:12.875Z,1.70
2024-04-26T16:39:43.802Z,2.30
2024-04-26T16:42:11.666Z,2.40
2024-04-26T16:44:39.616Z,2.10
2024-04-26T16:47:07.719Z,2.10
2024-04-26T16:49:37.348Z,2.00
2024-04-26T16:52:05.824Z,2.00
2024-04-26T16:54:33.612Z,2.30
2024-04-26T16:57:01.605Z,1.90
2024-04-26T16:59:29.892Z,2.10
2024-04-26T17:01:57.930Z,2.00
2024-04-26T17:04:25.858Z,1.90
2024-04-26T17:06:53.894Z,2.10
2024-04-26T17:09:21.922Z,2.30
2024-04-26T17:11:50.044Z,2.20
2024-04-26T17:14:18.194Z,2.50
2024-04-26T17:16:46.124Z,2.30
2024-04-26T17:19:14.135Z,2.10
2024-04-26T17:21:45.820Z,1.90
2024-04-26T17:24:13.840Z,2.20
2024-04-26T17:26:42.506Z,2.10
2024-04-26T17:29:10.343Z,2.10
2024-04-26T17:31:38.335Z,2.10
2024-04-26T17:34:06.420Z,3.20
2024-04-26T17:36:35.049Z,2.90
2024-04-26T17:39:03.055Z,2.80
2024-04-26T17:41:30.970Z,2.70
2024-04-26T17:43:59.048Z,3.80
2024-04-26T17:46:27.071Z,3.20
2024-04-26T17:48:55.099Z,3.30
2024-04-26T17:51:23.558Z,4.20
2024-04-26T17:53:51.492Z,3.30
2024-04-26T17:56:24.371Z,3.20
2024-04-26T17:58:53.104Z,3.40
2024-04-26T18:01:22.454Z,3.00
2024-04-26T18:03:50.636Z,3.00
2024-04-26T18:06:21.276Z,3.10
2024-04-26T18:08:49.250Z,3.20
2024-04-26T18:11:17.444Z,3.30
2024-04-26T18:13:45.535Z,3.20
2024-04-26T18:16:18.889Z,4.20
2024-04-26T18:18:46.890Z,3.40
2024-04-26T18:21:21.590Z,3.30
2024-04-26T18:23:49.542Z,3.60
2024-04-26T18:26:17.433Z,3.80
2024-04-26T18:28:45.386Z,3.00
2024-04-26T18:31:13.323Z,3.20
2024-04-26T18:33:44.490Z,3.40
2024-04-26T18:36:20.227Z,3.00
2024-04-26T18:38:50.570Z,3.20
2024-04-26T18:41:19.970Z,3.30
2024-04-26T18:43:47.919Z,3.60
2024-04-26T18:46:15.874Z,3.50
2024-04-26T18:48:45.555Z,3.70
2024-04-26T18:51:15.613Z,3.00
2024-04-26T18:53:43.681Z,3.10
2024-04-26T18:56:12.467Z,3.40
2024-04-26T18:58:41.472Z,3.30
2024-04-26T19:01:09.626Z,3.30
2024-04-26T19:03:38.449Z,3.00
2024-04-26T19:06:06.882Z,3.60
2024-04-26T19:08:34.839Z,4.00
2024-04-26T19:11:02.922Z,3.60
2024-04-26T19:13:30.874Z,3.50
2024-04-26T19:15:59.406Z,4.00
2024-04-26T19:18:27.465Z,3.50
2024-04-26T19:20:55.512Z,4.00
2024-04-26T19:23:23.320Z,3.70
2024-04-26T19:25:51.203Z,9.40
2024-04-26T19:28:19.247Z,3.90
2024-04-26T19:30:51.790Z,3.60
2024-04-26T19:33:20.048Z,3.80
2024-04-26T19:35:48.065Z,3.40
2024-04-26T19:38:18.487Z,3.70
2024-04-26T19:40:46.748Z,3.90
2024-04-26T19:45:44.924Z,3.60
2024-04-26T19:48:13.762Z,4.00
2024-04-26T19:50:41.845Z,4.10
2024-04-26T19:53:28.344Z,4.20
2024-04-26T19:56:14.095Z,3.30
2024-04-26T19:58:45.182Z,3.70
2024-04-26T20:01:14.279Z,4.30
2024-04-26T20:03:44.030Z,4.20
2024-04-26T20:06:12.052Z,4.30
2024-04-26T20:08:40.291Z,4.00
2024-04-26T20:11:10.069Z,4.10
2024-04-26T20:13:38.612Z,4.20
2024-04-26T20:16:06.801Z,3.70
2024-04-26T20:18:36.934Z,3.60
2024-04-26T20:21:08.502Z,4.20
2024-04-26T20:23:36.971Z,4.00
2024-04-26T20:26:05.068Z,3.50
2024-04-26T20:28:33.710Z,4.30
2024-04-26T20:31:01.612Z,4.00
2024-04-26T20:33:29.659Z,4.50
2024-04-26T20:35:57.528Z,3.90
2024-04-26T20:38:25.421Z,5.10
2024-04-26T20:40:53.288Z,4.10
2024-04-26T20:43:21.250Z,4.30
2024-04-26T20:45:49.123Z,4.80
2024-04-26T20:48:18.048Z,4.80
2024-04-26T20:50:46.534Z,4.10
2024-04-26T20:53:14.436Z,4.20
2024-04-26T20:55:42.481Z,4.40
2024-04-26T20:58:10.394Z,4.10
2024-04-26T21:00:38.255Z,4.30
2024-04-26T21:03:06.217Z,4.90
2024-04-26T21:05:34.370Z,4.70
2024-04-26T21:08:04.762Z,4.60
2024-04-26T21:10:34.311Z,4.20
2024-04-26T21:13:02.308Z,4.70
2024-04-26T21:15:30.191Z,4.00
2024-04-26T21:17:58.112Z,4.00
2024-04-26T21:20:26.784Z,5.30
2024-04-26T21:22:59.521Z,5.20
2024-04-26T21:25:28.104Z,5.10
2024-04-26T21:28:01.139Z,5.70
2024-04-26T21:30:31.556Z,5.40
2024-04-26T21:32:59.565Z,5.60
2024-04-26T21:35:27.640Z,5.90
2024-04-26T21:37:55.563Z,6.50
2024-04-26T21:40:24.739Z,6.10
2024-04-26T21:42:53.042Z,6.00
2024-04-26T21:45:20.854Z,5.70
2024-04-26T21:47:48.760Z,6.00
2024-04-26T21:50:16.749Z,6.40
2024-04-26T21:52:44.809Z,6.20
2024-04-26T21:55:12.757Z,5.70
2024-04-26T21:57:42.110Z,5.80
2024-04-26T22:00:10.307Z,6.10
2024-04-26T22:02:41.822Z,6.50
2024-04-26T22:05:09.989Z,6.60
2024-04-26T22:07:38.167Z,6.20
2024-04-26T22:10:06.299Z,5.80
2024-04-26T22:12:34.380Z,6.20
2024-04-26T22:15:02.376Z,6.20
2024-04-26T22:17:30.400Z,5.40
2024-04-26T22:19:58.921Z,6.00
2024-04-26T22:22:26.888Z,5.10
2024-04-26T22:24:54.721Z,4.90
2024-04-26T22:27:22.675Z,4.80
2024-04-26T22:29:50.625Z,4.60
2024-04-26T22:32:18.582Z,4.50
2024-04-26T22:34:46.698Z,5.20
2024-04-26T22:37:14.606Z,4.90
2024-04-26T22:39:42.646Z,6.70
2024-04-26T22:42:10.483Z,5.00
2024-04-26T22:44:38.588Z,4.60
2024-04-26T22:47:06.858Z,5.20
2024-04-26T22:49:34.876Z,4.50
2024-04-26T22:52:02.923Z,5.00
2024-04-26T22:54:32.187Z,5.10
2024-04-26T22:57:00.718Z,5.10
2024-04-26T22:59:29.504Z,4.00
2024-04-26T23:01:57.456Z,4.80
2024-04-26T23:04:30.948Z,5.10
2024-04-26T23:06:59.400Z,5.00
2024-04-26T23:09:27.216Z,4.90
2024-04-26T23:11:55.105Z,4.90
2024-04-26T23:14:23.143Z,5.00
2024-04-26T23:16:51.048Z,5.20
2024-04-26T23:19:18.921Z,4.70
2024-04-26T23:21:46.786Z,4.80
2024-04-26T23:24:15.689Z,5.30
2024-04-26T23:26:43.544Z,4.90
2024-04-26T23:29:11.402Z,4.80
2024-04-26T23:31:40.013Z,4.50
2024-04-26T23:34:08.016Z,5.10
2024-04-26T23:36:38.325Z,5.10
2024-04-26T23:39:06.243Z,5.10
2024-04-26T23:41:34.095Z,5.60
2024-04-26T23:44:02.022Z,5.20
2024-04-26T23:46:30.321Z,4.90
2024-04-26T23:48:58.422Z,4.80
2024-04-26T23:51:26.296Z,3.50
2024-04-26T23:53:54.102Z,4.50
2024-04-26T23:56:25.245Z,4.60
2024-04-26T23:58:58.022Z,5.00
